sensor_id;sensor_type;location;lat;lon;timestamp;P1;durP1;ratioP1;P2;durP2;ratioP2
57309;SDS011;43153;50.984;18.204;2024-01-16T00:00:28;5.90;;;1.90;;
57309;SDS011;43153;50.984;18.204;2024-01-16T00:02:53;5.40;;;1.50;;
57309;SDS011;43153;50.984;18.204;2024-01-16T00:05:19;7.70;;;2.00;;
57309;SDS011;43153;50.984;18.204;2024-01-16T00:07:45;7.60;;;1.90;;
57309;SDS011;43153;50.984;18.204;2024-01-16T00:10:11;6.10;;;2.10;;
57309;SDS011;43153;50.984;18.204;2024-01-16T00:12:38;8.60;;;2.10;;
57309;SDS011;43153;50.984;18.204;2024-01-16T00:15:06;9.10;;;2.60;;
57309;SDS011;43153;50.984;18.204;2024-01-16T00:17:31;7.60;;;2.30;;
57309;SDS011;43153;50.984;18.204;2024-01-16T00:20:00;5.80;;;1.60;;
57309;SDS011;43153;50.984;18.204;2024-01-16T00:22:26;8.10;;;2.00;;
57309;SDS011;43153;50.984;18.204;2024-01-16T00:24:53;8.70;;;2.40;;
57309;SDS011;43153;50.984;18.204;2024-01-16T00:27:19;11.60;;;2.30;;
57309;SDS011;43153;50.984;18.204;2024-01-16T00:29:45;5.00;;;1.40;;
57309;SDS011;43153;50.984;18.204;2024-01-16T00:32:11;5.20;;;1.70;;
57309;SDS011;43153;50.984;18.204;2024-01-16T00:34:45;6.00;;;1.80;;
57309;SDS011;43153;50.984;18.204;2024-01-16T00:37:10;7.50;;;2.10;;
57309;SDS011;43153;50.984;18.204;2024-01-16T00:39:37;8.60;;;2.30;;
57309;SDS011;43153;50.984;18.204;2024-01-16T00:42:04;6.50;;;2.30;;
57309;SDS011;43153;50.984;18.204;2024-01-16T00:44:31;9.10;;;2.50;;
57309;SDS011;43153;50.984;18.204;2024-01-16T00:46:57;10.20;;;1.80;;
57309;SDS011;43153;50.984;18.204;2024-01-16T00:49:22;5.90;;;1.90;;
57309;SDS011;43153;50.984;18.204;2024-01-16T00:51:48;9.20;;;2.50;;
57309;SDS011;43153;50.984;18.204;2024-01-16T00:54:15;10.30;;;3.40;;
57309;SDS011;43153;50.984;18.204;2024-01-16T00:56:41;4.70;;;1.80;;
57309;SDS011;43153;50.984;18.204;2024-01-16T00:59:08;6.70;;;1.60;;
57309;SDS011;43153;50.984;18.204;2024-01-16T01:01:34;11.30;;;2.20;;
57309;SDS011;43153;50.984;18.204;2024-01-16T01:04:03;10.80;;;2.40;;
57309;SDS011;43153;50.984;18.204;2024-01-16T01:06:29;8.40;;;2.20;;
57309;SDS011;43153;50.984;18.204;2024-01-16T01:08:56;8.40;;;1.90;;
57309;SDS011;43153;50.984;18.204;2024-01-16T01:11:23;6.30;;;1.90;;
57309;SDS011;43153;50.984;18.204;2024-01-16T01:13:48;7.20;;;1.80;;
57309;SDS011;43153;50.984;18.204;2024-01-16T01:16:14;7.60;;;1.80;;
57309;SDS011;43153;50.984;18.204;2024-01-16T01:18:40;10.60;;;1.50;;
57309;SDS011;43153;50.984;18.204;2024-01-16T01:21:05;8.50;;;1.70;;
57309;SDS011;43153;50.984;18.204;2024-01-16T01:23:31;5.40;;;1.50;;
57309;SDS011;43153;50.984;18.204;2024-01-16T01:25:58;7.60;;;1.20;;
57309;SDS011;43153;50.984;18.204;2024-01-16T01:28:24;4.80;;;1.40;;
57309;SDS011;43153;50.984;18.204;2024-01-16T01:30:49;6.00;;;1.40;;
57309;SDS011;43153;50.984;18.204;2024-01-16T01:33:15;8.70;;;1.10;;
57309;SDS011;43153;50.984;18.204;2024-01-16T01:35:42;6.60;;;1.40;;
57309;SDS011;43153;50.984;18.204;2024-01-16T01:38:08;3.90;;;0.80;;
57309;SDS011;43153;50.984;18.204;2024-01-16T01:40:35;3.60;;;1.20;;
57309;SDS011;43153;50.984;18.204;2024-01-16T01:43:20;6.60;;;1.20;;
57309;SDS011;43153;50.984;18.204;2024-01-16T01:45:47;1.80;;;0.70;;
57309;SDS011;43153;50.984;18.204;2024-01-16T01:48:40;7.20;;;1.80;;
57309;SDS011;43153;50.984;18.204;2024-01-16T01:51:07;5.70;;;1.10;;
57309;SDS011;43153;50.984;18.204;2024-01-16T01:53:35;8.00;;;1.70;;
57309;SDS011;43153;50.984;18.204;2024-01-16T01:56:04;6.00;;;1.30;;
57309;SDS011;43153;50.984;18.204;2024-01-16T01:58:33;5.70;;;1.00;;
57309;SDS011;43153;50.984;18.204;2024-01-16T02:01:01;6.40;;;1.50;;
57309;SDS011;43153;50.984;18.204;2024-01-16T02:03:28;8.10;;;1.30;;
57309;SDS011;43153;50.984;18.204;2024-01-16T02:05:55;3.70;;;1.20;;
57309;SDS011;43153;50.984;18.204;2024-01-16T02:08:23;4.30;;;1.20;;
57309;SDS011;43153;50.984;18.204;2024-01-16T02:10:49;5.80;;;1.40;;
57309;SDS011;43153;50.984;18.204;2024-01-16T02:13:16;7.50;;;1.40;;
57309;SDS011;43153;50.984;18.204;2024-01-16T02:15:46;5.20;;;1.10;;
57309;SDS011;43153;50.984;18.204;2024-01-16T02:18:12;4.50;;;0.80;;
57309;SDS011;43153;50.984;18.204;2024-01-16T02:20:41;5.00;;;1.00;;
57309;SDS011;43153;50.984;18.204;2024-01-16T02:23:09;4.20;;;0.90;;
57309;SDS011;43153;50.984;18.204;2024-01-16T02:25:36;5.50;;;1.10;;
57309;SDS011;43153;50.984;18.204;2024-01-16T02:28:03;4.40;;;1.10;;
57309;SDS011;43153;50.984;18.204;2024-01-16T02:30:33;3.70;;;0.80;;
57309;SDS011;43153;50.984;18.204;2024-01-16T02:32:59;4.10;;;0.90;;
57309;SDS011;43153;50.984;18.204;2024-01-16T02:35:28;5.00;;;1.00;;
57309;SDS011;43153;50.984;18.204;2024-01-16T02:37:53;5.00;;;0.80;;
57309;SDS011;43153;50.984;18.204;2024-01-16T02:40:19;8.50;;;1.10;;
57309;SDS011;43153;50.984;18.204;2024-01-16T02:42:45;4.20;;;1.00;;
57309;SDS011;43153;50.984;18.204;2024-01-16T02:45:11;5.30;;;0.90;;
57309;SDS011;43153;50.984;18.204;2024-01-16T02:47:40;4.80;;;1.00;;
57309;SDS011;43153;50.984;18.204;2024-01-16T02:50:06;5.20;;;0.90;;
57309;SDS011;43153;50.984;18.204;2024-01-16T02:52:34;4.80;;;0.90;;
57309;SDS011;43153;50.984;18.204;2024-01-16T02:55:01;5.00;;;0.90;;
57309;SDS011;43153;50.984;18.204;2024-01-16T02:57:26;4.30;;;0.80;;
57309;SDS011;43153;50.984;18.204;2024-01-16T02:59:54;3.60;;;0.60;;
57309;SDS011;43153;50.984;18.204;2024-01-16T03:02:20;5.80;;;1.40;;
57309;SDS011;43153;50.984;18.204;2024-01-16T03:04:46;5.50;;;0.90;;
57309;SDS011;43153;50.984;18.204;2024-01-16T03:07:12;5.10;;;1.20;;
57309;SDS011;43153;50.984;18.204;2024-01-16T03:09:39;6.30;;;1.20;;
57309;SDS011;43153;50.984;18.204;2024-01-16T03:12:06;6.20;;;1.10;;
57309;SDS011;43153;50.984;18.204;2024-01-16T03:14:32;6.00;;;1.10;;
57309;SDS011;43153;50.984;18.204;2024-01-16T03:17:02;4.40;;;1.70;;
57309;SDS011;43153;50.984;18.204;2024-01-16T03:19:28;7.50;;;1.60;;
57309;SDS011;43153;50.984;18.204;2024-01-16T03:21:54;8.80;;;2.40;;
57309;SDS011;43153;50.984;18.204;2024-01-16T03:24:20;7.50;;;1.90;;
57309;SDS011;43153;50.984;18.204;2024-01-16T03:26:46;9.30;;;2.50;;
57309;SDS011;43153;50.984;18.204;2024-01-16T03:29:12;10.90;;;2.00;;
57309;SDS011;43153;50.984;18.204;2024-01-16T03:31:38;10.70;;;2.30;;
57309;SDS011;43153;50.984;18.204;2024-01-16T03:34:03;7.50;;;2.20;;
57309;SDS011;43153;50.984;18.204;2024-01-16T03:36:29;9.00;;;2.10;;
57309;SDS011;43153;50.984;18.204;2024-01-16T03:38:55;8.50;;;2.40;;
57309;SDS011;43153;50.984;18.204;2024-01-16T03:41:23;4.70;;;1.60;;
57309;SDS011;43153;50.984;18.204;2024-01-16T03:43:50;7.10;;;1.90;;
57309;SDS011;43153;50.984;18.204;2024-01-16T03:46:16;6.60;;;2.00;;
57309;SDS011;43153;50.984;18.204;2024-01-16T03:48:44;8.30;;;1.90;;
57309;SDS011;43153;50.984;18.204;2024-01-16T03:51:11;11.10;;;2.70;;
57309;SDS011;43153;50.984;18.204;2024-01-16T03:53:41;7.10;;;2.10;;
57309;SDS011;43153;50.984;18.204;2024-01-16T03:56:07;12.50;;;3.00;;
57309;SDS011;43153;50.984;18.204;2024-01-16T03:58:33;11.00;;;3.50;;
57309;SDS011;43153;50.984;18.204;2024-01-16T04:00:59;10.70;;;3.20;;
57309;SDS011;43153;50.984;18.204;2024-01-16T04:03:25;12.30;;;3.20;;
57309;SDS011;43153;50.984;18.204;2024-01-16T04:05:50;10.80;;;2.80;;
57309;SDS011;43153;50.984;18.204;2024-01-16T04:08:16;7.40;;;3.40;;
57309;SDS011;43153;50.984;18.204;2024-01-16T04:10:44;11.60;;;2.90;;
57309;SDS011;43153;50.984;18.204;2024-01-16T04:13:09;10.20;;;2.80;;
57309;SDS011;43153;50.984;18.204;2024-01-16T04:15:39;12.10;;;3.00;;
57309;SDS011;43153;50.984;18.204;2024-01-16T04:18:05;8.40;;;2.50;;
57309;SDS011;43153;50.984;18.204;2024-01-16T04:20:32;7.00;;;1.90;;
57309;SDS011;43153;50.984;18.204;2024-01-16T04:22:58;8.50;;;1.90;;
57309;SDS011;43153;50.984;18.204;2024-01-16T04:25:24;7.40;;;2.40;;
57309;SDS011;43153;50.984;18.204;2024-01-16T04:27:49;10.80;;;2.00;;
57309;SDS011;43153;50.984;18.204;2024-01-16T04:30:16;9.20;;;2.00;;
57309;SDS011;43153;50.984;18.204;2024-01-16T04:32:42;8.80;;;2.50;;
57309;SDS011;43153;50.984;18.204;2024-01-16T04:35:08;7.10;;;2.10;;
57309;SDS011;43153;50.984;18.204;2024-01-16T04:37:34;8.00;;;1.80;;
57309;SDS011;43153;50.984;18.204;2024-01-16T04:40:00;5.10;;;1.40;;
57309;SDS011;43153;50.984;18.204;2024-01-16T04:42:26;7.40;;;1.90;;
57309;SDS011;43153;50.984;18.204;2024-01-16T04:44:53;7.60;;;1.90;;
57309;SDS011;43153;50.984;18.204;2024-01-16T04:47:20;7.20;;;2.00;;
57309;SDS011;43153;50.984;18.204;2024-01-16T04:49:46;10.60;;;2.10;;
57309;SDS011;43153;50.984;18.204;2024-01-16T04:52:13;5.40;;;1.90;;
57309;SDS011;43153;50.984;18.204;2024-01-16T04:54:39;6.30;;;1.90;;
57309;SDS011;43153;50.984;18.204;2024-01-16T04:57:05;8.20;;;1.90;;
57309;SDS011;43153;50.984;18.204;2024-01-16T04:59:31;7.70;;;1.80;;
57309;SDS011;43153;50.984;18.204;2024-01-16T05:01:57;6.30;;;1.80;;
57309;SDS011;43153;50.984;18.204;2024-01-16T05:04:23;6.40;;;2.20;;
57309;SDS011;43153;50.984;18.204;2024-01-16T05:06:52;5.50;;;1.70;;
57309;SDS011;43153;50.984;18.204;2024-01-16T05:09:18;8.50;;;1.70;;
57309;SDS011;43153;50.984;18.204;2024-01-16T05:11:50;8.10;;;2.30;;
57309;SDS011;43153;50.984;18.204;2024-01-16T05:14:17;9.80;;;1.90;;
57309;SDS011;43153;50.984;18.204;2024-01-16T05:16:43;8.70;;;2.00;;
57309;SDS011;43153;50.984;18.204;2024-01-16T05:19:09;5.20;;;1.50;;
57309;SDS011;43153;50.984;18.204;2024-01-16T05:21:35;7.40;;;2.10;;
57309;SDS011;43153;50.984;18.204;2024-01-16T05:24:04;7.70;;;1.90;;
57309;SDS011;43153;50.984;18.204;2024-01-16T05:26:30;7.50;;;2.10;;
57309;SDS011;43153;50.984;18.204;2024-01-16T05:28:56;15.20;;;3.40;;
57309;SDS011;43153;50.984;18.204;2024-01-16T05:31:22;9.50;;;2.40;;
57309;SDS011;43153;50.984;18.204;2024-01-16T05:33:48;17.10;;;2.40;;
57309;SDS011;43153;50.984;18.204;2024-01-16T05:36:15;8.60;;;2.40;;
57309;SDS011;43153;50.984;18.204;2024-01-16T05:38:41;6.80;;;1.80;;
57309;SDS011;43153;50.984;18.204;2024-01-16T05:41:07;9.90;;;1.80;;
57309;SDS011;43153;50.984;18.204;2024-01-16T05:43:34;7.10;;;2.10;;
57309;SDS011;43153;50.984;18.204;2024-01-16T05:46:00;12.30;;;2.70;;
57309;SDS011;43153;50.984;18.204;2024-01-16T05:48:26;10.90;;;2.20;;
57309;SDS011;43153;50.984;18.204;2024-01-16T05:50:57;4.40;;;1.50;;
57309;SDS011;43153;50.984;18.204;2024-01-16T05:53:25;7.10;;;1.70;;
57309;SDS011;43153;50.984;18.204;2024-01-16T05:55:52;4.70;;;1.50;;
57309;SDS011;43153;50.984;18.204;2024-01-16T05:58:20;7.70;;;1.90;;
57309;SDS011;43153;50.984;18.204;2024-01-16T06:00:46;8.10;;;2.20;;
57309;SDS011;43153;50.984;18.204;2024-01-16T06:03:12;8.00;;;2.50;;
57309;SDS011;43153;50.984;18.204;2024-01-16T06:05:38;5.60;;;1.70;;
57309;SDS011;43153;50.984;18.204;2024-01-16T06:08:04;9.70;;;2.00;;
57309;SDS011;43153;50.984;18.204;2024-01-16T06:10:30;6.30;;;1.20;;
57309;SDS011;43153;50.984;18.204;2024-01-16T06:12:57;6.30;;;1.80;;
57309;SDS011;43153;50.984;18.204;2024-01-16T06:15:22;4.80;;;1.20;;
57309;SDS011;43153;50.984;18.204;2024-01-16T06:17:54;6.40;;;1.40;;
57309;SDS011;43153;50.984;18.204;2024-01-16T06:20:21;7.20;;;2.00;;
57309;SDS011;43153;50.984;18.204;2024-01-16T06:22:50;9.60;;;1.70;;
57309;SDS011;43153;50.984;18.204;2024-01-16T06:25:16;5.70;;;1.30;;
57309;SDS011;43153;50.984;18.204;2024-01-16T06:27:41;6.20;;;1.70;;
57309;SDS011;43153;50.984;18.204;2024-01-16T06:30:13;6.40;;;1.60;;
57309;SDS011;43153;50.984;18.204;2024-01-16T06:32:38;6.50;;;1.70;;
57309;SDS011;43153;50.984;18.204;2024-01-16T06:35:05;6.30;;;1.70;;
57309;SDS011;43153;50.984;18.204;2024-01-16T06:37:31;7.30;;;1.50;;
57309;SDS011;43153;50.984;18.204;2024-01-16T06:39:56;7.40;;;1.90;;
57309;SDS011;43153;50.984;18.204;2024-01-16T06:42:22;5.60;;;1.60;;
57309;SDS011;43153;50.984;18.204;2024-01-16T06:44:49;5.10;;;1.60;;
57309;SDS011;43153;50.984;18.204;2024-01-16T06:47:15;5.80;;;2.30;;
57309;SDS011;43153;50.984;18.204;2024-01-16T06:49:41;7.40;;;1.90;;
57309;SDS011;43153;50.984;18.204;2024-01-16T06:52:07;12.50;;;4.50;;
57309;SDS011;43153;50.984;18.204;2024-01-16T06:54:34;9.40;;;2.50;;
57309;SDS011;43153;50.984;18.204;2024-01-16T06:57:00;10.30;;;3.00;;
57309;SDS011;43153;50.984;18.204;2024-01-16T06:59:25;10.50;;;2.40;;
57309;SDS011;43153;50.984;18.204;2024-01-16T07:01:51;8.90;;;2.40;;
57309;SDS011;43153;50.984;18.204;2024-01-16T07:04:17;12.00;;;4.10;;
57309;SDS011;43153;50.984;18.204;2024-01-16T07:06:43;10.40;;;2.60;;
57309;SDS011;43153;50.984;18.204;2024-01-16T07:09:09;12.30;;;3.30;;
57309;SDS011;43153;50.984;18.204;2024-01-16T07:11:37;14.40;;;3.40;;
57309;SDS011;43153;50.984;18.204;2024-01-16T07:14:03;12.30;;;3.50;;
57309;SDS011;43153;50.984;18.204;2024-01-16T07:16:29;6.10;;;1.60;;
57309;SDS011;43153;50.984;18.204;2024-01-16T07:18:55;4.30;;;1.20;;
57309;SDS011;43153;50.984;18.204;2024-01-16T07:21:21;6.60;;;1.30;;
57309;SDS011;43153;50.984;18.204;2024-01-16T07:23:47;7.50;;;0.90;;
57309;SDS011;43153;50.984;18.204;2024-01-16T07:26:14;5.30;;;1.40;;
57309;SDS011;43153;50.984;18.204;2024-01-16T07:28:42;5.70;;;1.20;;
57309;SDS011;43153;50.984;18.204;2024-01-16T07:31:09;9.40;;;1.50;;
57309;SDS011;43153;50.984;18.204;2024-01-16T07:33:35;4.20;;;1.30;;
57309;SDS011;43153;50.984;18.204;2024-01-16T07:36:02;4.20;;;1.40;;
57309;SDS011;43153;50.984;18.204;2024-01-16T07:38:27;5.40;;;1.10;;
57309;SDS011;43153;50.984;18.204;2024-01-16T07:40:56;7.80;;;1.50;;
57309;SDS011;43153;50.984;18.204;2024-01-16T07:43:22;6.80;;;2.00;;
57309;SDS011;43153;50.984;18.204;2024-01-16T07:45:50;7.60;;;1.80;;
57309;SDS011;43153;50.984;18.204;2024-01-16T07:48:16;11.00;;;2.40;;
57309;SDS011;43153;50.984;18.204;2024-01-16T07:50:41;8.10;;;1.80;;
57309;SDS011;43153;50.984;18.204;2024-01-16T07:53:07;10.30;;;2.70;;
57309;SDS011;43153;50.984;18.204;2024-01-16T07:55:32;8.60;;;2.50;;
57309;SDS011;43153;50.984;18.204;2024-01-16T07:57:59;9.90;;;2.70;;
57309;SDS011;43153;50.984;18.204;2024-01-16T08:00:28;11.60;;;3.70;;
57309;SDS011;43153;50.984;18.204;2024-01-16T08:02:55;11.00;;;3.00;;
57309;SDS011;43153;50.984;18.204;2024-01-16T08:05:24;10.00;;;3.30;;
57309;SDS011;43153;50.984;18.204;2024-01-16T08:07:58;9.40;;;3.20;;
57309;SDS011;43153;50.984;18.204;2024-01-16T08:10:25;16.90;;;3.10;;
57309;SDS011;43153;50.984;18.204;2024-01-16T08:12:51;8.00;;;2.20;;
57309;SDS011;43153;50.984;18.204;2024-01-16T08:15:17;7.60;;;2.60;;
57309;SDS011;43153;50.984;18.204;2024-01-16T08:17:43;11.80;;;2.80;;
57309;SDS011;43153;50.984;18.204;2024-01-16T08:20:09;7.20;;;2.60;;
57309;SDS011;43153;50.984;18.204;2024-01-16T08:22:35;8.10;;;2.70;;
57309;SDS011;43153;50.984;18.204;2024-01-16T08:25:02;7.40;;;1.80;;
57309;SDS011;43153;50.984;18.204;2024-01-16T08:27:32;7.00;;;2.40;;
57309;SDS011;43153;50.984;18.204;2024-01-16T08:29:58;5.90;;;2.00;;
57309;SDS011;43153;50.984;18.204;2024-01-16T08:32:24;7.30;;;2.00;;
57309;SDS011;43153;50.984;18.204;2024-01-16T08:34:50;6.20;;;1.70;;
57309;SDS011;43153;50.984;18.204;2024-01-16T08:37:16;10.80;;;2.00;;
57309;SDS011;43153;50.984;18.204;2024-01-16T08:39:45;8.90;;;2.50;;
57309;SDS011;43153;50.984;18.204;2024-01-16T08:42:11;14.20;;;5.10;;
57309;SDS011;43153;50.984;18.204;2024-01-16T08:44:37;25.10;;;10.30;;
57309;SDS011;43153;50.984;18.204;2024-01-16T08:47:04;28.60;;;10.60;;
57309;SDS011;43153;50.984;18.204;2024-01-16T08:49:35;27.40;;;11.00;;
57309;SDS011;43153;50.984;18.204;2024-01-16T08:52:00;33.40;;;14.00;;
57309;SDS011;43153;50.984;18.204;2024-01-16T08:54:27;32.20;;;13.60;;
57309;SDS011;43153;50.984;18.204;2024-01-16T08:56:55;32.10;;;13.20;;
57309;SDS011;43153;50.984;18.204;2024-01-16T08:59:21;33.80;;;13.20;;
57309;SDS011;43153;50.984;18.204;2024-01-16T09:01:46;23.90;;;9.00;;
57309;SDS011;43153;50.984;18.204;2024-01-16T09:04:12;22.50;;;9.10;;
57309;SDS011;43153;50.984;18.204;2024-01-16T09:06:40;19.60;;;8.20;;
57309;SDS011;43153;50.984;18.204;2024-01-16T09:09:07;27.00;;;9.50;;
57309;SDS011;43153;50.984;18.204;2024-01-16T09:11:35;23.00;;;9.30;;
57309;SDS011;43153;50.984;18.204;2024-01-16T09:14:01;21.70;;;9.30;;
57309;SDS011;43153;50.984;18.204;2024-01-16T09:16:27;21.70;;;9.10;;
57309;SDS011;43153;50.984;18.204;2024-01-16T09:18:53;27.60;;;10.00;;
57309;SDS011;43153;50.984;18.204;2024-01-16T09:21:21;22.60;;;9.60;;
57309;SDS011;43153;50.984;18.204;2024-01-16T09:23:47;27.10;;;10.10;;
57309;SDS011;43153;50.984;18.204;2024-01-16T09:26:13;21.30;;;9.20;;
57309;SDS011;43153;50.984;18.204;2024-01-16T09:28:38;22.50;;;10.00;;
57309;SDS011;43153;50.984;18.204;2024-01-16T09:31:05;26.20;;;10.40;;
57309;SDS011;43153;50.984;18.204;2024-01-16T09:33:31;23.10;;;10.20;;
57309;SDS011;43153;50.984;18.204;2024-01-16T09:35:57;32.20;;;10.90;;
57309;SDS011;43153;50.984;18.204;2024-01-16T09:38:22;26.30;;;8.80;;
57309;SDS011;43153;50.984;18.204;2024-01-16T10:23:02;8.20;;;2.80;;
57309;SDS011;43153;50.984;18.204;2024-01-16T10:25:29;10.90;;;2.90;;
57309;SDS011;43153;50.984;18.204;2024-01-16T10:28:04;8.10;;;3.10;;
57309;SDS011;43153;50.984;18.204;2024-01-16T10:30:32;10.80;;;3.30;;
57309;SDS011;43153;50.984;18.204;2024-01-16T10:33:15;10.70;;;3.20;;
57309;SDS011;43153;50.984;18.204;2024-01-16T10:35:41;6.50;;;2.50;;
57309;SDS011;43153;50.984;18.204;2024-01-16T10:38:07;7.80;;;3.00;;
57309;SDS011;43153;50.984;18.204;2024-01-16T10:40:32;9.70;;;3.60;;
57309;SDS011;43153;50.984;18.204;2024-01-16T10:43:00;6.90;;;2.60;;
57309;SDS011;43153;50.984;18.204;2024-01-16T10:45:28;7.70;;;3.20;;
57309;SDS011;43153;50.984;18.204;2024-01-16T10:48:04;8.20;;;2.40;;
57309;SDS011;43153;50.984;18.204;2024-01-16T10:50:31;7.90;;;2.70;;
57309;SDS011;43153;50.984;18.204;2024-01-16T10:53:04;6.90;;;2.40;;
57309;SDS011;43153;50.984;18.204;2024-01-16T10:55:31;7.40;;;2.60;;
57309;SDS011;43153;50.984;18.204;2024-01-16T10:58:22;10.40;;;2.60;;
57309;SDS011;43153;50.984;18.204;2024-01-16T11:00:50;8.10;;;2.50;;
57309;SDS011;43153;50.984;18.204;2024-01-16T11:03:21;7.90;;;2.80;;
57309;SDS011;43153;50.984;18.204;2024-01-16T11:06:09;9.10;;;2.90;;
57309;SDS011;43153;50.984;18.204;2024-01-16T11:08:35;9.80;;;2.90;;
57309;SDS011;43153;50.984;18.204;2024-01-16T11:11:02;8.20;;;2.20;;
57309;SDS011;43153;50.984;18.204;2024-01-16T11:13:34;12.60;;;3.90;;
57309;SDS011;43153;50.984;18.204;2024-01-16T11:16:04;13.10;;;4.10;;
57309;SDS011;43153;50.984;18.204;2024-01-16T11:18:33;14.80;;;3.70;;
57309;SDS011;43153;50.984;18.204;2024-01-16T11:21:11;12.00;;;2.80;;
57309;SDS011;43153;50.984;18.204;2024-01-16T11:23:39;11.70;;;3.10;;
57309;SDS011;43153;50.984;18.204;2024-01-16T11:28:52;8.00;;;2.90;;
57309;SDS011;43153;50.984;18.204;2024-01-16T11:33:56;9.20;;;2.30;;
57309;SDS011;43153;50.984;18.204;2024-01-16T11:39:24;13.60;;;4.50;;
57309;SDS011;43153;50.984;18.204;2024-01-16T11:41:54;11.50;;;5.00;;
57309;SDS011;43153;50.984;18.204;2024-01-16T11:47:16;10.70;;;3.70;;
57309;SDS011;43153;50.984;18.204;2024-01-16T11:49:43;9.50;;;3.50;;
57309;SDS011;43153;50.984;18.204;2024-01-16T11:52:09;13.10;;;4.00;;
57309;SDS011;43153;50.984;18.204;2024-01-16T11:54:40;12.30;;;3.70;;
57309;SDS011;43153;50.984;18.204;2024-01-16T11:57:25;15.50;;;4.30;;
57309;SDS011;43153;50.984;18.204;2024-01-16T12:05:23;14.00;;;4.30;;
57309;SDS011;43153;50.984;18.204;2024-01-16T12:08:00;13.70;;;4.30;;
57309;SDS011;43153;50.984;18.204;2024-01-16T12:10:28;11.70;;;4.00;;
57309;SDS011;43153;50.984;18.204;2024-01-16T12:13:00;11.50;;;3.40;;
57309;SDS011;43153;50.984;18.204;2024-01-16T12:15:27;10.60;;;3.70;;
57309;SDS011;43153;50.984;18.204;2024-01-16T12:18:00;14.20;;;4.20;;
57309;SDS011;43153;50.984;18.204;2024-01-16T12:20:29;13.60;;;4.40;;
57309;SDS011;43153;50.984;18.204;2024-01-16T12:25:30;17.10;;;4.00;;
57309;SDS011;43153;50.984;18.204;2024-01-16T12:27:59;11.90;;;3.60;;
57309;SDS011;43153;50.984;18.204;2024-01-16T12:30:30;13.50;;;3.00;;
57309;SDS011;43153;50.984;18.204;2024-01-16T12:33:09;11.40;;;3.70;;
57309;SDS011;43153;50.984;18.204;2024-01-16T12:35:40;12.00;;;3.80;;
57309;SDS011;43153;50.984;18.204;2024-01-16T12:38:08;12.50;;;4.00;;
57309;SDS011;43153;50.984;18.204;2024-01-16T12:40:39;10.10;;;2.90;;
57309;SDS011;43153;50.984;18.204;2024-01-16T12:43:07;8.60;;;2.60;;
57309;SDS011;43153;50.984;18.204;2024-01-16T12:45:36;7.50;;;2.90;;
57309;SDS011;43153;50.984;18.204;2024-01-16T12:48:03;8.80;;;2.90;;
57309;SDS011;43153;50.984;18.204;2024-01-16T12:50:30;8.20;;;2.00;;
57309;SDS011;43153;50.984;18.204;2024-01-16T12:53:03;6.60;;;1.80;;
57309;SDS011;43153;50.984;18.204;2024-01-16T12:55:32;7.90;;;1.30;;
57309;SDS011;43153;50.984;18.204;2024-01-16T12:58:18;6.70;;;1.40;;
57309;SDS011;43153;50.984;18.204;2024-01-16T13:00:48;4.80;;;1.10;;
57309;SDS011;43153;50.984;18.204;2024-01-16T13:03:19;4.20;;;0.90;;
57309;SDS011;43153;50.984;18.204;2024-01-16T13:05:57;3.30;;;0.70;;
57309;SDS011;43153;50.984;18.204;2024-01-16T13:08:26;5.50;;;0.90;;
57309;SDS011;43153;50.984;18.204;2024-01-16T13:11:02;5.30;;;1.30;;
57309;SDS011;43153;50.984;18.204;2024-01-16T13:13:29;7.10;;;1.30;;
57309;SDS011;43153;50.984;18.204;2024-01-16T13:15:55;6.30;;;1.30;;
57309;SDS011;43153;50.984;18.204;2024-01-16T13:18:24;6.60;;;1.70;;
57309;SDS011;43153;50.984;18.204;2024-01-16T13:20:52;6.00;;;1.50;;
57309;SDS011;43153;50.984;18.204;2024-01-16T13:23:23;8.20;;;1.60;;
57309;SDS011;43153;50.984;18.204;2024-01-16T13:25:52;7.50;;;2.20;;
57309;SDS011;43153;50.984;18.204;2024-01-16T13:28:25;8.20;;;2.30;;
57309;SDS011;43153;50.984;18.204;2024-01-16T13:30:52;8.60;;;1.90;;
57309;SDS011;43153;50.984;18.204;2024-01-16T13:33:19;7.70;;;2.10;;
57309;SDS011;43153;50.984;18.204;2024-01-16T13:35:46;7.80;;;2.40;;
57309;SDS011;43153;50.984;18.204;2024-01-16T13:38:13;6.00;;;2.00;;
57309;SDS011;43153;50.984;18.204;2024-01-16T13:40:42;12.30;;;2.70;;
57309;SDS011;43153;50.984;18.204;2024-01-16T13:43:09;9.10;;;2.80;;
57309;SDS011;43153;50.984;18.204;2024-01-16T13:45:35;9.20;;;3.10;;
57309;SDS011;43153;50.984;18.204;2024-01-16T13:48:01;14.80;;;4.20;;
57309;SDS011;43153;50.984;18.204;2024-01-16T13:50:30;11.80;;;3.90;;
57309;SDS011;43153;50.984;18.204;2024-01-16T13:52:58;14.60;;;3.80;;
57309;SDS011;43153;50.984;18.204;2024-01-16T13:55:24;19.80;;;5.40;;
57309;SDS011;43153;50.984;18.204;2024-01-16T13:57:51;19.60;;;6.60;;
57309;SDS011;43153;50.984;18.204;2024-01-16T14:00:17;25.60;;;7.80;;
57309;SDS011;43153;50.984;18.204;2024-01-16T14:02:46;25.70;;;8.40;;
57309;SDS011;43153;50.984;18.204;2024-01-16T14:05:17;33.10;;;9.00;;
57309;SDS011;43153;50.984;18.204;2024-01-16T14:07:44;31.00;;;9.80;;
57309;SDS011;43153;50.984;18.204;2024-01-16T14:10:12;31.10;;;9.80;;
57309;SDS011;43153;50.984;18.204;2024-01-16T14:12:42;26.80;;;7.70;;
57309;SDS011;43153;50.984;18.204;2024-01-16T14:15:09;21.30;;;6.40;;
57309;SDS011;43153;50.984;18.204;2024-01-16T14:17:47;18.90;;;6.10;;
57309;SDS011;43153;50.984;18.204;2024-01-16T14:20:14;11.90;;;4.40;;
57309;SDS011;43153;50.984;18.204;2024-01-16T14:22:40;16.00;;;6.00;;
57309;SDS011;43153;50.984;18.204;2024-01-16T14:25:07;13.90;;;4.60;;
57309;SDS011;43153;50.984;18.204;2024-01-16T14:27:38;17.00;;;6.30;;
57309;SDS011;43153;50.984;18.204;2024-01-16T14:30:06;18.50;;;7.00;;
57309;SDS011;43153;50.984;18.204;2024-01-16T14:32:36;18.30;;;7.60;;
57309;SDS011;43153;50.984;18.204;2024-01-16T14:35:07;23.30;;;8.30;;
57309;SDS011;43153;50.984;18.204;2024-01-16T14:37:39;18.40;;;7.90;;
57309;SDS011;43153;50.984;18.204;2024-01-16T14:40:06;21.30;;;8.20;;
57309;SDS011;43153;50.984;18.204;2024-01-16T14:42:46;30.60;;;11.50;;
57309;SDS011;43153;50.984;18.204;2024-01-16T14:45:22;32.90;;;14.30;;
57309;SDS011;43153;50.984;18.204;2024-01-16T14:50:16;39.50;;;15.50;;
57309;SDS011;43153;50.984;18.204;2024-01-16T14:52:45;43.70;;;17.80;;
57309;SDS011;43153;50.984;18.204;2024-01-16T14:55:11;45.60;;;16.50;;
57309;SDS011;43153;50.984;18.204;2024-01-16T14:57:41;45.40;;;16.90;;
57309;SDS011;43153;50.984;18.204;2024-01-16T15:00:12;37.40;;;14.00;;
57309;SDS011;43153;50.984;18.204;2024-01-16T15:02:45;34.40;;;11.40;;
57309;SDS011;43153;50.984;18.204;2024-01-16T15:05:14;28.50;;;11.20;;
57309;SDS011;43153;50.984;18.204;2024-01-16T15:07:45;25.60;;;8.70;;
57309;SDS011;43153;50.984;18.204;2024-01-16T15:10:11;24.40;;;8.50;;
57309;SDS011;43153;50.984;18.204;2024-01-16T15:12:44;24.10;;;9.60;;
57309;SDS011;43153;50.984;18.204;2024-01-16T15:15:10;19.50;;;7.30;;
57309;SDS011;43153;50.984;18.204;2024-01-16T15:17:41;23.90;;;7.60;;
57309;SDS011;43153;50.984;18.204;2024-01-16T15:20:09;26.70;;;7.70;;
57309;SDS011;43153;50.984;18.204;2024-01-16T15:22:39;22.90;;;7.10;;
57309;SDS011;43153;50.984;18.204;2024-01-16T15:25:06;21.10;;;6.10;;
57309;SDS011;43153;50.984;18.204;2024-01-16T15:27:32;18.60;;;6.20;;
57309;SDS011;43153;50.984;18.204;2024-01-16T15:29:58;20.80;;;7.70;;
57309;SDS011;43153;50.984;18.204;2024-01-16T15:32:26;23.60;;;7.10;;
57309;SDS011;43153;50.984;18.204;2024-01-16T15:34:53;21.70;;;8.10;;